Time;durP1;ratioP1;P1;durP2;ratioP2;P2;SDS_P1;SDS_P2;PMS_P1;PMS_P2;Temp;Humidity;BMP_temperature;BMP_pressure;BME280_temperature;BME280_humidity;BME280_pressure;Samples;Min_cycle;Max_cycle;Signal;HPM_P1;HPM_P2
2022/07/15 00:01:54;;;;;;;6.78;3.13;;;19.00;99.30;;;;;;8347686;28;20021;-79
2022/07/15 00:05:55;;;;;;;5.72;3.20;;;18.90;98.00;;;;;;8345545;28;20381;-78
2022/07/15 00:14:14;;;;;;;5.75;2.80;;;19.00;99.90;;;;;;8353226;28;20027;-79
2022/07/15 00:18:15;;;;;;;6.10;2.90;;;18.80;98.90;;;;;;8344097;28;20366;-79
2022/07/15 00:22:15;;;;;;;7.30;2.90;;;18.70;99.10;;;;;;8335200;28;20393;-78
2022/07/15 00:26:16;;;;;;;7.35;3.10;;;18.60;99.80;;;;;;8343399;28;20025;-77
2022/07/15 00:30:17;;;;;;;4.22;3.17;;;18.60;99.90;;;;;;8335454;28;20029;-79
2022/07/15 00:34:17;;;;;;;4.30;3.15;;;18.60;99.90;;;;;;8339282;28;20021;-78
2022/07/15 00:38:18;;;;;;;8.43;3.05;;;18.30;99.90;;;;;;8346576;28;20531;-79
2022/07/15 00:46:37;;;;;;;4.65;3.38;;;18.10;99.90;;;;;;8346151;28;20052;-79
2022/07/15 00:50:38;;;;;;;5.40;3.28;;;17.80;99.90;;;;;;8339897;28;20029;-79
2022/07/15 00:54:39;;;;;;;3.85;3.33;;;17.60;99.90;;;;;;8348873;28;20095;-79
2022/07/15 00:58:41;;;;;;;6.15;3.60;;;17.60;99.90;;;;;;8338749;28;20404;-79
2022/07/15 01:02:50;;;;;;;8.35;4.00;;;17.30;99.90;;;;;;8341457;28;20021;-78
2022/07/15 01:06:50;;;;;;;7.50;3.92;;;17.00;99.90;;;;;;8342247;28;20035;-78
2022/07/15 01:10:52;;;;;;;4.55;3.33;;;16.80;99.90;;;;;;8341051;28;20013;-79
2022/07/15 01:14:53;;;;;;;6.65;3.80;;;16.80;99.90;;;;;;8343599;28;20489;-79
2022/07/15 01:18:54;;;;;;;4.20;3.03;;;16.80;99.90;;;;;;8337236;28;20036;-78
2022/07/15 01:22:55;;;;;;;6.13;3.17;;;16.80;99.90;;;;;;8339993;28;20017;-78
2022/07/15 01:26:56;;;;;;;4.32;2.78;;;17.10;99.90;;;;;;8341260;28;20071;-77
2022/07/15 01:30:56;;;;;;;6.32;3.10;;;16.90;99.90;;;;;;8336917;28;20084;-77
2022/07/15 01:34:57;;;;;;;6.88;3.13;;;17.00;99.90;;;;;;8338831;28;20619;-79
2022/07/15 01:38:58;;;;;;;5.40;2.65;;;17.00;99.90;;;;;;8337858;28;20099;-78
2022/07/15 01:42:58;;;;;;;4.72;2.80;;;16.90;99.90;;;;;;8336380;28;20040;-79
2022/07/15 01:46:59;;;;;;;6.18;2.92;;;17.00;99.90;;;;;;8336860;28;20041;-79
2022/07/15 01:51:00;;;;;;;8.18;3.25;;;16.80;99.90;;;;;;8329442;28;20025;-79
2022/07/15 01:55:02;;;;;;;5.60;2.88;;;16.70;99.90;;;;;;8344456;28;20099;-79
2022/07/15 01:59:03;;;;;;;6.15;2.85;;;17.00;99.90;;;;;;8331572;28;20473;-79
2022/07/15 02:03:03;;;;;;;3.50;2.45;;;17.10;99.90;;;;;;8344996;28;20025;-79
2022/07/15 02:07:04;;;;;;;7.57;3.28;;;16.80;99.90;;;;;;8344848;28;20025;-78
2022/07/15 02:11:06;;;;;;;7.03;3.25;;;16.60;99.90;;;;;;8342150;28;20458;-79
2022/07/15 02:15:07;;;;;;;3.90;2.60;;;16.60;99.90;;;;;;8340218;28;20081;-79
2022/07/15 02:19:08;;;;;;;5.55;2.85;;;16.80;99.90;;;;;;8339527;28;20017;-79
2022/07/15 02:23:09;;;;;;;5.05;2.67;;;16.90;99.90;;;;;;8343559;28;20025;-78
2022/07/15 02:27:09;;;;;;;6.25;2.65;;;16.90;99.90;;;;;;8344358;28;20075;-78
2022/07/15 02:31:11;;;;;;;5.60;2.88;;;16.90;99.90;;;;;;8351057;28;20025;-79
2022/07/15 02:35:11;;;;;;;5.55;2.47;;;16.70;99.90;;;;;;8337270;28;20077;-79
2022/07/15 02:39:12;;;;;;;5.95;2.55;;;16.60;99.90;;;;;;8346143;28;20036;-79
2022/07/15 02:43:12;;;;;;;5.05;2.30;;;16.40;99.90;;;;;;8344145;28;20064;-79
2022/07/15 02:47:13;;;;;;;4.57;2.28;;;16.40;99.90;;;;;;8347822;28;20025;-78
2022/07/15 02:51:14;;;;;;;4.72;2.08;;;16.30;99.90;;;;;;8344688;28;20025;-79
2022/07/15 02:55:15;;;;;;;8.45;2.22;;;16.20;99.90;;;;;;8343193;28;20400;-79
2022/07/15 02:59:16;;;;;;;12.23;2.30;;;16.10;99.90;;;;;;8337242;28;20021;-79
2022/07/15 03:03:16;;;;;;;4.53;1.90;;;16.10;99.90;;;;;;8341079;28;20159;-78
2022/07/15 03:07:17;;;;;;;4.70;2.08;;;15.90;99.90;;;;;;8339790;28;20021;-79
2022/07/15 03:11:17;;;;;;;4.82;1.90;;;15.80;99.90;;;;;;8342690;28;20064;-79
2022/07/15 03:15:18;;;;;;;4.72;2.00;;;15.70;99.90;;;;;;8341673;28;20495;-79
2022/07/15 03:19:20;;;;;;;5.82;1.80;;;15.50;99.90;;;;;;8360179;28;20087;-79
2022/07/15 03:23:21;;;;;;;5.32;1.92;;;15.40;99.90;;;;;;8358400;28;20021;-79
2022/07/15 03:27:22;;;;;;;4.82;2.00;;;15.20;99.90;;;;;;8340137;28;20032;-79
2022/07/15 03:31:22;;;;;;;7.07;2.05;;;15.10;99.90;;;;;;8336353;28;20124;-80
2022/07/15 03:35:23;;;;;;;6.07;2.20;;;14.90;99.90;;;;;;8349085;28;20431;-79
2022/07/15 03:39:23;;;;;;;5.43;2.10;;;14.90;99.90;;;;;;8343033;28;20017;-79
2022/07/15 03:43:26;;;;;;;4.55;1.83;;;15.00;99.90;;;;;;8340158;28;20033;-80
2022/07/15 03:47:29;;;;;;;3.13;1.80;;;15.30;99.90;;;;;;8350840;28;20025;-79
2022/07/15 03:51:30;;;;;;;6.00;2.00;;;15.30;99.90;;;;;;8346633;28;20013;-80
2022/07/15 03:55:31;;;;;;;4.45;1.90;;;15.10;99.90;;;;;;8341194;28;20547;-79
2022/07/15 03:59:32;;;;;;;9.82;2.20;;;15.10;99.90;;;;;;8349496;28;20029;-79
2022/07/15 04:03:33;;;;;;;5.95;2.10;;;15.10;99.90;;;;;;8340482;28;20569;-80
2022/07/15 04:07:34;;;;;;;4.57;2.00;;;15.30;99.90;;;;;;8343208;28;20033;-79
2022/07/15 04:11:34;;;;;;;5.68;1.90;;;15.20;99.90;;;;;;8355554;28;20032;-80
2022/07/15 04:15:35;;;;;;;8.82;1.95;;;15.40;99.90;;;;;;8351735;28;20027;-80
2022/07/15 04:19:35;;;;;;;7.13;1.85;;;15.50;99.90;;;;;;8331987;28;20033;-79
2022/07/15 04:23:36;;;;;;;4.03;1.98;;;15.60;99.90;;;;;;8358809;28;20053;-79
2022/07/15 04:27:37;;;;;;;8.75;2.08;;;15.70;99.90;;;;;;8339579;28;20029;-79
2022/07/15 04:31:38;;;;;;;4.47;2.08;;;16.20;99.90;;;;;;8337839;28;20021;-80
2022/07/15 04:35:39;;;;;;;4.47;2.20;;;16.10;99.90;;;;;;8330912;28;20029;-86
2022/07/15 04:39:39;;;;;;;5.32;2.42;;;15.90;99.90;;;;;;8347338;28;20108;-86
2022/07/15 04:43:40;;;;;;;6.22;2.60;;;16.10;99.90;;;;;;8342046;28;20021;-86
2022/07/15 04:47:40;;;;;;;5.80;2.38;;;16.50;99.90;;;;;;8333615;28;20036;-85
2022/07/15 04:51:41;;;;;;;3.38;2.00;;;16.30;99.90;;;;;;8337311;28;20107;-85
2022/07/15 04:55:41;;;;;;;10.05;2.20;;;16.60;99.90;;;;;;8340861;28;20071;-84
2022/07/15 04:59:42;;;;;;;5.68;1.70;;;17.30;99.90;;;;;;8347369;28;20478;-83
2022/07/15 05:03:42;;;;;;;4.38;2.08;;;18.10;99.90;;;;;;8351229;28;20029;-83
2022/07/15 05:07:43;;;;;;;8.82;1.80;;;19.10;99.90;;;;;;8348806;28;20025;-84
2022/07/15 05:11:43;;;;;;;3.85;1.83;;;20.20;99.90;;;;;;8342512;28;20032;-85
2022/07/15 05:15:44;;;;;;;3.10;1.77;;;21.10;99.90;;;;;;8342865;28;20023;-84
2022/07/15 05:19:44;;;;;;;5.68;2.10;;;21.40;97.70;;;;;;8348484;28;20032;-83
2022/07/15 05:23:45;;;;;;;5.63;1.83;;;21.00;98.20;;;;;;8341098;28;20048;-86
2022/07/15 05:27:45;;;;;;;5.22;1.83;;;20.80;99.50;;;;;;8337138;28;20021;-84
2022/07/15 05:31:46;;;;;;;3.38;1.80;;;21.00;98.30;;;;;;8348510;28;20583;-83
2022/07/15 05:35:47;;;;;;;3.55;2.13;;;21.40;97.90;;;;;;8337357;28;20018;-83
2022/07/15 05:39:53;;;;;;;7.55;1.77;;;21.70;97.50;;;;;;8343675;28;20018;-84
2022/07/15 05:43:53;;;;;;;4.93;1.90;;;21.70;96.60;;;;;;8347150;28;20028;-85
2022/07/15 05:47:54;;;;;;;4.63;1.90;;;21.60;94.20;;;;;;8342955;28;20656;-85
2022/07/15 05:51:55;;;;;;;4.38;1.90;;;22.00;95.20;;;;;;8343300;28;20116;-84
2022/07/15 05:55:55;;;;;;;4.22;1.73;;;22.10;95.10;;;;;;8346064;28;20048;-84
2022/07/15 05:59:56;;;;;;;3.90;1.63;;;22.20;96.90;;;;;;8330440;28;20109;-83
2022/07/15 06:03:56;;;;;;;4.82;1.83;;;22.30;93.60;;;;;;8350718;28;20473;-83
2022/07/15 06:07:58;;;;;;;2.95;2.00;;;22.40;94.80;;;;;;8347143;28;20039;-84
2022/07/15 06:11:58;;;;;;;4.13;1.98;;;22.50;93.60;;;;;;8333763;28;20096;-84
2022/07/15 06:15:59;;;;;;;6.97;2.40;;;22.20;93.60;;;;;;8337635;28;20067;-84
2022/07/15 06:20:00;;;;;;;5.03;2.05;;;22.10;93.90;;;;;;8345082;28;20074;-84
2022/07/15 06:24:01;;;;;;;4.07;2.03;;;22.60;93.50;;;;;;8331903;28;20033;-84
2022/07/15 06:28:02;;;;;;;6.05;2.30;;;22.70;93.80;;;;;;8353214;28;20447;-83
2022/07/15 06:32:03;;;;;;;4.85;2.15;;;23.00;91.20;;;;;;8338285;28;20548;-84
2022/07/15 06:36:04;;;;;;;4.55;2.10;;;23.60;91.00;;;;;;8340019;28;20112;-83
2022/07/15 06:40:05;;;;;;;7.70;2.15;;;23.80;90.50;;;;;;8347981;28;20025;-83
2022/07/15 06:44:06;;;;;;;6.15;2.30;;;23.70;89.00;;;;;;8342859;28;20045;-84
2022/07/15 06:48:06;;;;;;;4.88;2.20;;;23.30;92.30;;;;;;8354968;28;20132;-84
2022/07/15 06:52:07;;;;;;;6.70;2.40;;;23.20;91.50;;;;;;8345301;28;20378;-80
2022/07/15 06:56:08;;;;;;;5.93;2.08;;;23.30;92.00;;;;;;8340597;28;20032;-80
2022/07/15 07:00:11;;;;;;;12.60;2.47;;;23.40;91.00;;;;;;8351510;28;20024;-80
2022/07/15 07:04:12;;;;;;;5.10;2.08;;;23.50;89.40;;;;;;8345708;28;20370;-79
2022/07/15 07:08:12;;;;;;;7.38;2.15;;;23.60;91.40;;;;;;8340193;28;20021;-79
2022/07/15 07:12:13;;;;;;;7.93;2.35;;;23.50;90.60;;;;;;8343475;28;20040;-80
2022/07/15 07:16:13;;;;;;;7.70;2.45;;;23.70;90.70;;;;;;8339829;28;20048;-78
2022/07/15 07:20:14;;;;;;;10.43;2.70;;;23.70;88.30;;;;;;8341601;28;20028;-79
2022/07/15 07:24:14;;;;;;;4.70;2.22;;;24.10;91.60;;;;;;8341119;28;20040;-79
2022/07/15 07:28:15;;;;;;;4.40;2.28;;;24.60;87.70;;;;;;8337150;28;20033;-79
2022/07/15 07:32:15;;;;;;;8.30;4.43;;;25.00;88.80;;;;;;8339337;28;20072;-79
2022/07/15 07:36:16;;;;;;;5.22;2.08;;;24.80;87.50;;;;;;8343570;28;20678;-80
2022/07/15 07:40:17;;;;;;;7.20;2.60;;;25.50;83.00;;;;;;8345037;28;20048;-85
2022/07/15 07:44:17;;;;;;;6.78;2.83;;;26.00;86.90;;;;;;8327081;28;20049;-85
2022/07/15 07:48:18;;;;;;;6.05;2.40;;;25.20;83.40;;;;;;8351002;28;20032;-86
2022/07/15 07:52:19;;;;;;;6.30;2.55;;;24.80;81.30;;;;;;8340264;28;20033;-85
2022/07/15 07:56:20;;;;;;;10.98;2.78;;;25.30;84.10;;;;;;8345736;28;20020;-85
2022/07/15 08:00:21;;;;;;;7.20;2.55;;;25.60;84.30;;;;;;8348385;28;20025;-85
2022/07/15 08:04:22;;;;;;;5.10;2.67;;;25.60;85.00;;;;;;8337719;28;20188;-89
2022/07/15 08:08:23;;;;;;;7.55;2.97;;;25.80;80.90;;;;;;8352858;28;20021;-86
2022/07/15 08:12:23;;;;;;;4.10;2.30;;;26.30;79.70;;;;;;8362314;28;20021;-86
2022/07/15 08:16:24;;;;;;;4.32;2.47;;;26.90;83.90;;;;;;8344663;28;20052;-88
2022/07/15 08:20:25;;;;;;;4.45;2.60;;;27.10;76.90;;;;;;8334359;28;20036;-85
2022/07/15 08:24:25;;;;;;;5.60;2.53;;;27.20;76.70;;;;;;8352132;28;20024;-86
2022/07/15 08:28:26;;;;;;;5.93;2.85;;;27.20;80.80;;;;;;8349329;28;20017;-87
2022/07/15 08:32:27;;;;;;;3.92;2.60;;;27.40;77.10;;;;;;8345629;28;20028;-87
2022/07/15 08:36:27;;;;;;;4.53;2.42;;;27.60;75.90;;;;;;8332663;28;20052;-86
2022/07/15 08:40:28;;;;;;;5.20;2.80;;;27.60;71.80;;;;;;8338195;28;20036;-88
2022/07/15 08:44:29;;;;;;;6.57;3.00;;;27.20;76.60;;;;;;8344835;28;20063;-86
2022/07/15 08:48:33;;;;;;;8.93;2.92;;;27.40;73.40;;;;;;8349306;28;20018;-86
2022/07/15 08:52:35;;;;;;;5.63;2.80;;;27.40;77.20;;;;;;8339684;28;20030;-87
2022/07/15 08:56:37;;;;;;;6.25;2.80;;;27.10;78.50;;;;;;8341057;28;20026;-87
2022/07/15 09:00:38;;;;;;;4.93;2.65;;;26.80;75.20;;;;;;8332589;28;20401;-86
2022/07/15 09:05:16;;;;;;;4.97;2.92;;;26.40;74.90;;;;;;8330213;28;20040;-88
2022/07/15 09:09:29;;;;;;;3.17;2.47;;;26.40;77.50;;;;;;8332421;28;20021;-88
2022/07/15 09:13:38;;;;;;;8.07;2.67;;;26.70;74.20;;;;;;8330575;28;20092;-87
2022/07/15 09:17:39;;;;;;;6.80;2.70;;;26.50;73.10;;;;;;8344139;28;20497;-87
2022/07/15 09:21:44;;;;;;;6.35;3.63;;;27.10;72.80;;;;;;8342376;28;20115;-86
2022/07/15 09:25:45;;;;;;;4.22;2.83;;;27.70;73.70;;;;;;8336902;28;20021;-87
2022/07/15 09:34:05;;;;;;;6.78;2.60;;;27.70;72.90;;;;;;8341626;23;20080;-83
2022/07/15 09:38:05;;;;;;;8.45;2.97;;;27.40;71.60;;;;;;8304615;28;20014;-83
2022/07/15 09:42:07;;;;;;;8.00;3.25;;;27.00;74.90;;;;;;8295512;28;20037;-83
2022/07/15 09:46:07;;;;;;;4.93;2.33;;;27.60;71.60;;;;;;8321586;28;20025;-82
2022/07/15 09:50:08;;;;;;;4.18;2.97;;;27.80;67.90;;;;;;8315635;28;20036;-82
2022/07/15 09:54:12;;;;;;;6.70;2.55;;;27.90;68.50;;;;;;8325839;28;20025;-81
2022/07/15 09:58:13;;;;;;;9.98;2.85;;;27.30;71.90;;;;;;8326379;28;20103;-82
2022/07/15 10:02:14;;;;;;;5.88;2.95;;;27.40;73.40;;;;;;8321074;28;20026;-80
2022/07/15 10:06:15;;;;;;;4.32;2.58;;;27.30;70.10;;;;;;8319384;28;20022;-82
2022/07/15 10:10:17;;;;;;;4.03;2.70;;;26.80;68.00;;;;;;8316812;28;20101;-81
2022/07/15 10:14:50;;;;;;;6.53;2.90;;;26.20;76.20;;;;;;8316018;28;20040;-81
2022/07/15 10:18:57;;;;;;;5.70;2.85;;;26.40;71.40;;;;;;8316379;28;20032;-82
2022/07/15 10:23:34;;;;;;;8.57;3.33;;;26.80;74.40;;;;;;8324403;28;20052;-82
2022/07/15 10:27:46;;;;;;;4.05;2.75;;;27.40;68.70;;;;;;8319457;28;20465;-83
2022/07/15 10:31:59;;;;;;;8.23;2.95;;;28.00;73.70;;;;;;8313618;28;20030;-82
2022/07/15 10:36:04;;;;;;;6.57;2.90;;;28.60;63.90;;;;;;8320926;28;20501;-82
2022/07/15 10:40:06;;;;;;;5.07;2.78;;;27.80;67.60;;;;;;8328136;28;20045;-82
2022/07/15 10:44:10;;;;;;;6.40;2.70;;;27.20;69.70;;;;;;8315576;28;20405;-82
2022/07/15 10:48:28;;;;;;;4.22;2.90;;;26.70;74.80;;;;;;8322578;28;20025;-83
2022/07/15 10:52:31;;;;;;;5.47;2.83;;;27.80;65.70;;;;;;8317047;28;20038;-82
2022/07/15 10:56:36;;;;;;;5.88;2.72;;;28.60;68.50;;;;;;8319868;28;20468;-82
2022/07/15 11:00:37;;;;;;;4.70;2.78;;;28.20;66.10;;;;;;8326470;28;20042;-83
2022/07/15 11:04:42;;;;;;;4.75;2.78;;;29.30;63.50;;;;;;8323356;28;20152;-82
2022/07/15 11:08:43;;;;;;;4.40;2.80;;;29.50;62.60;;;;;;8312639;28;20033;-83
2022/07/15 11:12:50;;;;;;;4.72;2.65;;;30.20;62.50;;;;;;8317307;28;20029;-83
2022/07/15 11:16:56;;;;;;;6.55;2.70;;;30.80;58.60;;;;;;8315306;28;20490;-84
2022/07/15 11:20:57;;;;;;;8.23;3.00;;;31.40;59.50;;;;;;8314038;28;20018;-82
2022/07/15 11:24:58;;;;;;;3.47;2.53;;;30.30;59.60;;;;;;8328259;28;20257;-80
2022/07/15 11:28:58;;;;;;;6.82;3.05;;;28.50;63.60;;;;;;8332831;28;20547;-79
2022/07/15 11:33:01;;;;;;;5.05;2.92;;;27.10;66.00;;;;;;8329645;28;20041;-80
2022/07/15 11:37:04;;;;;;;5.15;2.55;;;28.70;67.50;;;;;;8328912;28;20665;-81
2022/07/15 11:45:37;;;;;;;6.50;2.80;;;32.00;57.60;;;;;;8328202;28;20032;-81
2022/07/15 11:49:39;;;;;;;5.65;2.70;;;31.10;59.30;;;;;;8318526;28;20033;-81
2022/07/15 11:53:47;;;;;;;5.30;2.60;;;29.90;59.10;;;;;;8317357;28;20103;-81
2022/07/15 11:57:48;;;;;;;5.13;3.10;;;28.70;62.10;;;;;;8320791;28;20025;-80
2022/07/15 12:02:03;;;;;;;4.63;2.75;;;26.80;70.60;;;;;;8323584;28;20017;-81
2022/07/15 12:06:25;;;;;;;5.68;3.03;;;28.30;66.80;;;;;;8319835;28;20025;-81
2022/07/15 12:10:37;;;;;;;6.60;2.67;;;30.50;59.60;;;;;;8312124;28;20340;-81
2022/07/15 12:14:39;;;;;;;8.60;3.05;;;32.50;52.70;;;;;;8330345;28;20172;-81
2022/07/15 12:18:40;;;;;;;6.70;2.72;;;33.40;51.70;;;;;;8326165;28;20030;-81
2022/07/15 12:23:04;;;;;;;4.78;2.90;;;34.70;49.30;;;;;;8322169;28;20032;-82
2022/07/15 12:27:04;;;;;;;2.75;2.25;;;35.50;48.40;;;;;;8318007;28;20020;-80
2022/07/15 12:31:05;;;;;;;5.68;2.33;;;34.50;47.70;;;;;;8326211;28;20021;-79
2022/07/15 12:35:07;;;;;;;4.50;2.92;;;33.30;51.80;;;;;;8325709;28;20021;-79
2022/07/15 12:39:16;;;;;;;5.95;2.88;;;34.60;47.50;;;;;;8323728;28;20033;-79
2022/07/15 12:43:17;;;;;;;4.50;2.72;;;35.30;44.40;;;;;;8322218;28;20096;-79
2022/07/15 12:47:18;;;;;;;4.72;2.60;;;32.90;52.90;;;;;;8319188;28;20037;-79
2022/07/15 12:51:25;;;;;;;5.70;2.60;;;34.20;47.20;;;;;;8325873;28;20013;-80
2022/07/15 12:55:29;;;;;;;5.35;2.60;;;33.50;45.20;;;;;;8312329;28;20497;-80
2022/07/15 12:59:30;;;;;;;3.95;2.83;;;33.80;47.50;;;;;;8321039;28;20058;-79
2022/07/15 13:03:30;;;;;;;5.47;2.50;;;34.90;44.70;;;;;;8326763;28;20385;-79
2022/07/15 13:07:31;;;;;;;6.70;2.58;;;35.70;44.50;;;;;;8321307;28;20109;-80
2022/07/15 13:11:31;;;;;;;5.03;2.72;;;36.40;42.40;;;;;;8311947;28;20033;-79
2022/07/15 13:15:33;;;;;;;7.82;2.60;;;34.30;45.30;;;;;;8319619;28;20036;-79
2022/07/15 13:19:33;;;;;;;3.60;2.20;;;35.00;45.30;;;;;;8321909;28;20382;-80
2022/07/15 13:23:34;;;;;;;6.57;2.80;;;35.50;41.30;;;;;;8322760;28;20018;-79
2022/07/15 13:27:35;;;;;;;4.32;2.75;;;35.30;42.40;;;;;;8319469;28;20498;-78
2022/07/15 13:31:35;;;;;;;8.85;2.78;;;34.40;43.40;;;;;;8312273;28;20072;-79
2022/07/15 13:35:36;;;;;;;7.00;2.40;;;35.80;40.30;;;;;;8315861;28;20041;-80
2022/07/15 13:39:37;;;;;;;3.20;2.45;;;36.90;40.80;;;;;;8312545;28;20471;-79
2022/07/15 13:43:37;;;;;;;7.60;2.53;;;37.20;41.20;;;;;;8313657;28;20590;-80
2022/07/15 13:47:39;;;;;;;5.55;2.38;;;38.10;40.60;;;;;;8317560;28;20041;-80
2022/07/15 13:51:42;;;;;;;4.35;2.47;;;39.20;37.10;;;;;;8316358;28;20025;-79
2022/07/15 13:55:43;;;;;;;3.80;2.10;;;39.60;35.40;;;;;;8311994;28;20036;-80
2022/07/15 13:59:43;;;;;;;6.63;2.22;;;38.40;38.20;;;;;;8313650;28;20022;-80
2022/07/15 14:03:44;;;;;;;4.75;2.45;;;38.20;38.00;;;;;;8324473;28;20076;-78
2022/07/15 14:07:44;;;;;;;4.97;2.55;;;37.50;38.20;;;;;;8322215;28;20059;-79
2022/07/15 14:11:45;;;;;;;6.32;2.53;;;37.40;38.70;;;;;;8310760;28;20048;-79
2022/07/15 14:15:46;;;;;;;4.75;2.40;;;38.00;36.60;;;;;;8323109;28;20052;-78
2022/07/15 14:19:46;;;;;;;8.23;2.40;;;38.90;37.90;;;;;;8323689;28;20033;-79
2022/07/15 14:23:48;;;;;;;6.82;2.53;;;38.70;36.10;;;;;;8318907;28;20028;-79
2022/07/15 14:27:49;;;;;;;6.13;2.50;;;39.60;35.70;;;;;;8323330;28;20033;-79
2022/07/15 14:31:49;;;;;;;3.95;2.50;;;40.50;34.90;;;;;;8311783;28;20037;-78
2022/07/15 14:35:50;;;;;;;4.20;2.30;;;38.70;36.00;;;;;;8319226;28;20116;-79
2022/07/15 14:39:50;;;;;;;5.40;2.17;;;37.90;36.40;;;;;;8323270;28;20033;-79
2022/07/15 14:43:51;;;;;;;6.65;2.60;;;36.60;40.30;;;;;;8313920;28;20034;-78
2022/07/15 14:47:51;;;;;;;6.57;2.53;;;35.50;39.80;;;;;;8316414;28;20064;-79
2022/07/15 14:51:52;;;;;;;5.68;2.47;;;36.00;39.50;;;;;;8320312;28;20026;-78
2022/07/15 14:55:52;;;;;;;7.50;2.75;;;35.60;41.10;;;;;;8312386;28;20485;-79
2022/07/15 14:59:53;;;;;;;6.93;2.40;;;35.80;41.20;;;;;;8316280;28;20037;-79
2022/07/15 15:03:54;;;;;;;6.00;2.53;;;35.00;39.70;;;;;;8320846;28;20049;-79
2022/07/15 15:07:54;;;;;;;4.75;2.30;;;35.50;41.50;;;;;;8325247;28;20033;-78
2022/07/15 15:11:55;;;;;;;3.47;2.60;;;33.20;44.30;;;;;;8328663;28;20045;-78
2022/07/15 15:15:55;;;;;;;5.78;2.67;;;33.40;42.70;;;;;;8323887;28;20029;-79
2022/07/15 15:19:56;;;;;;;5.97;2.75;;;32.70;45.20;;;;;;8325779;28;20155;-78
2022/07/15 15:23:56;;;;;;;3.63;2.50;;;32.20;44.60;;;;;;8318827;28;20022;-83
2022/07/15 15:27:57;;;;;;;3.15;2.33;;;34.10;41.10;;;;;;8318064;28;20037;-79
2022/07/15 15:31:58;;;;;;;4.53;2.58;;;36.60;40.10;;;;;;8317309;28;20021;-79
2022/07/15 15:35:58;;;;;;;4.97;2.50;;;36.40;39.30;;;;;;8343385;22;20053;-79
2022/07/15 15:39:59;;;;;;;3.55;2.22;;;36.40;39.20;;;;;;8325008;28;20021;-80
2022/07/15 15:43:59;;;;;;;2.88;2.50;;;35.50;39.40;;;;;;8319625;28;20097;-79
2022/07/15 15:48:00;;;;;;;3.90;2.50;;;32.20;45.30;;;;;;8306690;28;20072;-79
2022/07/15 15:52:01;;;;;;;4.10;2.72;;;29.20;52.00;;;;;;8312173;28;20052;-79
2022/07/15 15:56:02;;;;;;;6.80;2.83;;;28.20;50.50;;;;;;8309069;28;20269;-80
2022/07/15 16:00:05;;;;;;;3.67;3.13;;;27.90;52.70;;;;;;8306892;28;20052;-79
2022/07/15 16:04:05;;;;;;;6.78;2.95;;;27.40;56.10;;;;;;8316193;28;20383;-80
2022/07/15 16:08:06;;;;;;;7.68;2.97;;;26.90;56.20;;;;;;8297865;28;20018;-80
2022/07/15 16:12:07;;;;;;;3.55;2.70;;;26.50;58.40;;;;;;8299636;28;20040;-80
2022/07/15 16:16:07;;;;;;;4.28;2.72;;;26.40;55.80;;;;;;8318492;28;20041;-79
2022/07/15 16:20:08;;;;;;;7.00;3.05;;;26.70;58.10;;;;;;8324300;28;20109;-79
2022/07/15 16:24:09;;;;;;;4.05;2.65;;;26.50;60.40;;;;;;8300244;28;20021;-80
2022/07/15 16:28:11;;;;;;;4.85;2.80;;;26.00;58.40;;;;;;8317909;28;20064;-77
2022/07/15 16:32:12;;;;;;;6.80;3.00;;;26.00;59.90;;;;;;8306579;28;20029;-80
2022/07/15 16:36:12;;;;;;;5.30;3.08;;;26.10;64.10;;;;;;8307001;28;20064;-79
2022/07/15 16:40:13;;;;;;;3.95;3.05;;;26.10;60.60;;;;;;8310848;28;20026;-79
2022/07/15 16:44:14;;;;;;;6.57;2.75;;;26.80;56.40;;;;;;8304614;28;20026;-80
2022/07/15 16:48:14;;;;;;;8.20;3.17;;;26.50;60.30;;;;;;8307959;28;20070;-80
2022/07/15 16:52:15;;;;;;;6.38;2.72;;;26.00;63.00;;;;;;8302779;28;20021;-78
2022/07/15 16:56:16;;;;;;;5.32;3.10;;;25.40;63.10;;;;;;8306489;28;20029;-78
2022/07/15 17:00:16;;;;;;;5.97;2.85;;;25.20;61.70;;;;;;8313547;28;20029;-78
2022/07/15 17:04:18;;;;;;;7.22;2.97;;;25.30;61.80;;;;;;8305206;28;20375;-78
2022/07/15 17:08:18;;;;;;;6.80;3.10;;;25.50;63.60;;;;;;8304230;28;20022;-77
2022/07/15 17:12:20;;;;;;;4.63;2.60;;;25.20;63.90;;;;;;8304631;28;20036;-80
2022/07/15 17:16:21;;;;;;;8.02;2.70;;;24.60;61.40;;;;;;8306660;28;20402;-78
2022/07/15 17:20:21;;;;;;;5.35;2.88;;;24.20;65.10;;;;;;8301586;28;20022;-78
2022/07/15 17:24:22;;;;;;;4.32;2.67;;;23.80;62.70;;;;;;8311692;28;20018;-79
2022/07/15 17:28:22;;;;;;;6.63;2.80;;;23.60;65.40;;;;;;8304599;28;20032;-78
2022/07/15 17:32:23;;;;;;;4.45;2.72;;;23.50;65.70;;;;;;8298332;28;20470;-78
2022/07/15 17:36:23;;;;;;;6.35;3.00;;;23.60;65.60;;;;;;8309125;28;20036;-79
2022/07/15 17:40:24;;;;;;;5.40;2.65;;;23.50;66.10;;;;;;8312287;28;20091;-79
2022/07/15 17:44:25;;;;;;;3.85;2.40;;;23.40;65.80;;;;;;8303585;28;20104;-78
2022/07/15 17:48:25;;;;;;;7.68;2.50;;;23.20;67.50;;;;;;8307890;28;20068;-78
2022/07/15 17:52:27;;;;;;;4.78;2.70;;;22.80;71.50;;;;;;8300701;28;20068;-78
2022/07/15 17:56:28;;;;;;;10.68;3.20;;;22.60;72.20;;;;;;8290640;28;20022;-80
2022/07/15 18:00:28;;;;;;;5.45;2.60;;;22.40;70.50;;;;;;8300554;28;20121;-79
2022/07/15 18:04:29;;;;;;;5.72;2.78;;;22.40;70.00;;;;;;8301119;28;20394;-78
2022/07/15 18:08:29;;;;;;;4.57;2.83;;;22.20;70.70;;;;;;8308049;28;20049;-79
2022/07/15 18:12:30;;;;;;;8.27;3.03;;;22.00;70.50;;;;;;8303020;28;20545;-79
2022/07/15 18:16:31;;;;;;;6.05;2.85;;;21.80;72.80;;;;;;8307172;28;20036;-78
2022/07/15 18:20:31;;;;;;;4.40;2.60;;;21.60;72.20;;;;;;8301537;28;20026;-78
2022/07/15 18:24:32;;;;;;;5.30;2.67;;;21.60;74.70;;;;;;8298385;28;20040;-79
2022/07/15 18:28:33;;;;;;;4.35;2.70;;;21.40;76.80;;;;;;8302453;28;20038;-78
2022/07/15 18:32:33;;;;;;;3.55;2.70;;;21.30;76.90;;;;;;8307612;28;20405;-79
2022/07/15 18:36:34;;;;;;;5.68;2.92;;;21.00;79.50;;;;;;8310514;28;20072;-79
2022/07/15 18:40:37;;;;;;;6.85;2.63;;;20.70;81.40;;;;;;8314662;28;20048;-78
2022/07/15 18:44:38;;;;;;;4.45;2.70;;;20.50;81.30;;;;;;8305812;28;20037;-80
2022/07/15 18:48:39;;;;;;;4.57;2.53;;;20.40;81.20;;;;;;8308174;28;20497;-80
2022/07/15 18:52:40;;;;;;;7.30;2.75;;;20.20;83.10;;;;;;8312459;28;20025;-80
2022/07/15 18:56:40;;;;;;;8.23;2.90;;;20.10;82.10;;;;;;8300595;28;20021;-79
2022/07/15 19:00:41;;;;;;;5.15;3.08;;;19.90;83.40;;;;;;8304673;28;20021;-79
2022/07/15 19:04:45;;;;;;;5.25;2.70;;;19.80;83.90;;;;;;8302208;28;20036;-78
2022/07/15 19:08:48;;;;;;;6.80;2.65;;;19.80;81.30;;;;;;8309687;28;20044;-79
2022/07/15 19:12:49;;;;;;;9.05;2.78;;;19.80;83.10;;;;;;8310799;28;20496;-78
2022/07/15 19:16:49;;;;;;;5.57;2.53;;;19.80;83.00;;;;;;8290896;28;20062;-78
2022/07/15 19:20:50;;;;;;;7.40;2.60;;;19.60;84.80;;;;;;8309489;28;20129;-78
2022/07/15 19:24:50;;;;;;;8.05;2.72;;;19.40;85.90;;;;;;8300554;28;20460;-78
2022/07/15 19:28:51;;;;;;;4.13;2.65;;;19.30;84.30;;;;;;8291814;28;20029;-78
2022/07/15 19:32:51;;;;;;;8.00;2.80;;;19.20;85.10;;;;;;8306985;28;20446;-79
2022/07/15 19:36:52;;;;;;;6.57;2.95;;;19.10;87.20;;;;;;8308545;28;20091;-79
2022/07/15 19:40:53;;;;;;;7.20;3.00;;;18.90;88.60;;;;;;8308771;28;20018;-78
2022/07/15 19:44:53;;;;;;;6.40;2.50;;;18.80;90.90;;;;;;8292866;28;20547;-77
2022/07/15 19:48:54;;;;;;;5.70;2.67;;;18.20;92.30;;;;;;8317520;28;20075;-80
2022/07/15 19:52:55;;;;;;;3.88;2.53;;;17.80;92.60;;;;;;8305797;28;20100;-78
2022/07/15 19:56:56;;;;;;;6.55;2.63;;;17.80;92.40;;;;;;8311220;28;20026;-78
2022/07/15 20:00:56;;;;;;;3.00;2.50;;;18.00;91.80;;;;;;8307742;28;20564;-78
2022/07/15 20:04:57;;;;;;;5.97;2.60;;;18.10;91.40;;;;;;8312784;28;20020;-77
2022/07/15 20:08:58;;;;;;;5.70;2.50;;;18.10;91.30;;;;;;8306637;28;20029;-77
2022/07/15 20:12:59;;;;;;;6.18;2.58;;;18.10;91.20;;;;;;8301919;28;20026;-78
2022/07/15 20:16:59;;;;;;;5.18;2.70;;;18.00;92.80;;;;;;8300924;28;20037;-79
2022/07/15 20:21:00;;;;;;;3.95;2.45;;;17.80;94.60;;;;;;8296888;28;20030;-78
2022/07/15 20:25:01;;;;;;;4.68;2.60;;;17.60;94.00;;;;;;8308912;28;20079;-77
2022/07/15 20:29:02;;;;;;;5.55;2.67;;;17.70;94.50;;;;;;8311991;28;20033;-78
2022/07/15 20:33:02;;;;;;;4.22;2.85;;;17.60;94.80;;;;;;8305007;28;20022;-77
2022/07/15 20:37:04;;;;;;;8.35;3.10;;;17.70;93.90;;;;;;8307937;28;20029;-78
2022/07/15 20:41:04;;;;;;;8.63;2.83;;;17.70;93.60;;;;;;8303763;28;20021;-77
2022/07/15 20:45:05;;;;;;;4.03;2.70;;;17.80;93.30;;;;;;8302934;28;20026;-78
2022/07/15 20:49:06;;;;;;;6.50;2.60;;;17.90;92.60;;;;;;8309839;28;20032;-78
2022/07/15 20:53:07;;;;;;;3.22;2.63;;;18.10;92.10;;;;;;8308427;28;20052;-77
2022/07/15 20:57:08;;;;;;;6.43;2.88;;;18.20;91.60;;;;;;8306204;28;20437;-77
2022/07/15 21:01:09;;;;;;;6.35;2.50;;;18.20;91.70;;;;;;8312897;28;20072;-78
2022/07/15 21:05:09;;;;;;;5.30;2.53;;;18.20;91.90;;;;;;8306739;28;20552;-78
2022/07/15 21:09:10;;;;;;;8.40;2.65;;;18.10;92.40;;;;;;8303544;28;20072;-78
2022/07/15 21:13:11;;;;;;;6.20;3.35;;;18.00;91.90;;;;;;8307342;28;20021;-78